createdAt,value
2019-05-13T00:00:45.629Z,78.26
2019-05-13T00:03:13.463Z,78.41
2019-05-13T00:05:39.111Z,78.52
2019-05-13T00:08:04.889Z,78.84
2019-05-13T00:10:30.699Z,78.94
2019-05-13T00:12:56.475Z,78.85
2019-05-13T00:15:24.342Z,78.70
2019-05-13T00:17:49.955Z,78.91
2019-05-13T00:20:15.747Z,79.23
2019-05-13T00:22:44.699Z,79.31
2019-05-13T00:25:10.112Z,79.19
2019-05-13T00:27:35.895Z,79.32
2019-05-13T00:30:04.271Z,79.26
2019-05-13T00:32:30.168Z,79.42
2019-05-13T00:34:55.963Z,79.24
2019-05-13T00:37:21.740Z,79.10
2019-05-13T00:39:47.532Z,79.34
2019-05-13T00:42:14.256Z,79.54
2019-05-13T00:44:40.101Z,79.40
2019-05-13T00:47:05.905Z,79.57
2019-05-13T00:49:31.685Z,79.39
2019-05-13T00:51:57.480Z,79.51
2019-05-13T00:54:23.728Z,79.56
2019-05-13T00:56:49.551Z,79.83
2019-05-13T00:59:15.328Z,79.56
2019-05-13T01:01:41.132Z,79.88
2019-05-13T01:04:06.929Z,79.99
2019-05-13T01:06:34.147Z,79.96
2019-05-13T01:09:00.120Z,79.95
2019-05-13T01:11:25.917Z,80.02
2019-05-13T01:13:53.552Z,79.88
2019-05-13T01:16:19.397Z,80.11
2019-05-13T01:18:45.187Z,79.94
2019-05-13T01:21:13.147Z,79.92
2019-05-13T01:23:38.671Z,79.93
2019-05-13T01:26:04.454Z,79.98
2019-05-13T01:28:30.255Z,80.03
2019-05-13T01:30:56.040Z,80.34
2019-05-13T01:33:23.506Z,80.29
2019-05-13T01:35:49.523Z,79.83
2019-05-13T01:38:15.316Z,79.96
2019-05-13T01:40:43.739Z,80.32
2019-05-13T01:43:08.831Z,80.39
2019-05-13T01:45:34.586Z,80.44
2019-05-13T01:48:00.383Z,80.50
2019-05-13T01:50:26.160Z,80.54
2019-05-13T01:52:53.317Z,80.34
2019-05-13T01:55:19.154Z,80.37
2019-05-13T01:57:44.956Z,80.14
2019-05-13T02:00:13.770Z,80.08
2019-05-13T02:02:38.732Z,80.16
2019-05-13T02:05:04.833Z,79.94
2019-05-13T02:07:30.656Z,79.79
2019-05-13T02:09:57.041Z,79.86
2019-05-13T02:12:24.055Z,79.74
2019-05-13T02:14:49.925Z,79.98
2019-05-13T02:17:15.709Z,79.77
2019-05-13T02:19:44.067Z,79.61
2019-05-13T02:22:09.215Z,79.99
2019-05-13T02:24:35.007Z,80.00
2019-05-13T02:27:03.459Z,80.03
2019-05-13T02:29:28.996Z,80.12
2019-05-13T02:31:56.315Z,80.29
2019-05-13T02:34:23.173Z,80.35
2019-05-13T02:36:52.510Z,80.25
2019-05-13T02:39:16.886Z,80.08
2019-05-13T02:41:43.324Z,80.34
2019-05-13T02:44:12.005Z,80.58
2019-05-13T02:46:37.182Z,80.31
2019-05-13T02:49:03.419Z,80.57
2019-05-13T02:51:29.372Z,80.81
2019-05-13T02:53:55.253Z,80.85
2019-05-13T02:56:22.682Z,80.87
2019-05-13T02:58:48.642Z,80.83
2019-05-13T03:01:14.445Z,81.08
2019-05-13T03:03:40.346Z,81.06
2019-05-13T03:06:06.184Z,81.03
2019-05-13T03:08:43.750Z,81.16
2019-05-13T03:11:02.671Z,81.22
2019-05-13T03:13:27.350Z,81.44
2019-05-13T03:15:55.046Z,81.50
2019-05-13T03:18:22.523Z,81.42
2019-05-13T03:20:48.544Z,81.72
2019-05-13T03:23:14.325Z,81.76
2019-05-13T03:25:42.963Z,81.89
2019-05-13T03:28:07.811Z,81.76
2019-05-13T03:30:35.630Z,81.66
2019-05-13T03:33:09.668Z,81.87
2019-05-13T03:35:29.042Z,82.21
2019-05-13T03:37:54.786Z,82.31
2019-05-13T03:40:23.131Z,82.11
2019-05-13T03:42:53.024Z,82.04
2019-05-13T03:45:22.076Z,82.38
2019-05-13T03:47:48.871Z,82.06
2019-05-13T03:50:14.650Z,82.26
2019-05-13T03:52:43.112Z,82.50
2019-05-13T03:55:08.134Z,82.41
2019-05-13T03:57:34.114Z,82.38
2019-05-13T04:00:03.369Z,82.35
2019-05-13T04:02:27.609Z,82.52
2019-05-13T04:04:53.743Z,82.29
2019-05-13T04:07:19.500Z,82.53
2019-05-13T04:09:46.010Z,82.64
2019-05-13T04:12:13.522Z,82.51
2019-05-13T04:14:42.194Z,82.79
2019-05-13T04:17:07.297Z,82.57
2019-05-13T04:19:33.869Z,82.72
2019-05-13T04:22:02.346Z,82.65
2019-05-13T04:24:27.834Z,82.51
2019-05-13T04:26:53.682Z,82.69
2019-05-13T04:29:19.522Z,82.62
2019-05-13T04:31:45.316Z,82.57
2019-05-13T04:34:12.323Z,82.35
2019-05-13T04:36:38.486Z,82.55
2019-05-13T04:39:05.082Z,82.37
2019-05-13T04:41:33.269Z,82.26
2019-05-13T04:43:58.568Z,82.05
2019-05-13T04:46:24.350Z,82.05
2019-05-13T04:48:53.026Z,82.09
2019-05-13T04:51:17.949Z,81.96
2019-05-13T04:53:43.746Z,82.06
2019-05-13T04:56:09.529Z,81.88
2019-05-13T04:58:37.226Z,81.50
2019-05-13T05:01:40.336Z,81.44
2019-05-13T05:04:22.600Z,81.33
2019-05-13T05:06:46.410Z,81.59
2019-05-13T05:09:27.868Z,81.28
2019-05-13T05:12:23.111Z,81.33
2019-05-13T05:15:13.794Z,81.23
2019-05-13T05:18:02.858Z,81.11
2019-05-13T05:20:46.461Z,80.47
2019-05-13T05:23:21.734Z,80.34
2019-05-13T05:26:02.912Z,80.50
2019-05-13T05:28:33.015Z,80.50
2019-05-13T05:31:11.608Z,80.51
2019-05-13T05:34:07.746Z,80.37
2019-05-13T05:36:48.697Z,80.39
2019-05-13T05:39:22.721Z,80.26
2019-05-13T05:41:51.433Z,80.23
2019-05-13T05:44:21.437Z,80.29
2019-05-13T05:46:47.659Z,79.91
2019-05-13T05:49:15.358Z,79.54
2019-05-13T05:51:41.943Z,79.49
2019-05-13T05:54:11.997Z,79.67
2019-05-13T05:56:37.741Z,79.69
2019-05-13T05:59:03.640Z,79.38
2019-05-13T06:01:29.516Z,78.79
2019-05-13T06:03:56.313Z,78.74
2019-05-13T06:06:22.910Z,78.59
2019-05-13T06:08:48.702Z,78.08
2019-05-13T06:11:14.591Z,77.74
2019-05-13T06:13:42.066Z,77.09
2019-05-13T06:16:07.978Z,76.62
2019-05-13T06:18:33.758Z,76.48
2019-05-13T06:21:01.646Z,75.91
2019-05-13T06:23:27.252Z,75.70
2019-05-13T06:25:53.054Z,75.18
2019-05-13T06:28:18.835Z,75.71
2019-05-13T06:30:44.716Z,74.66
2019-05-13T06:33:12.023Z,74.09
2019-05-13T06:35:39.994Z,73.40
2019-05-13T06:38:05.757Z,73.40
2019-05-13T06:40:31.930Z,73.78
2019-05-13T06:42:57.753Z,72.80
2019-05-13T06:45:23.552Z,72.72
2019-05-13T06:47:51.950Z,71.73
2019-05-13T06:50:17.058Z,71.01
2019-05-13T06:52:42.870Z,70.75
2019-05-13T06:55:11.390Z,70.37
2019-05-13T06:57:36.442Z,68.47
2019-05-13T07:00:04.345Z,68.47
2019-05-13T07:02:32.082Z,68.24
2019-05-13T07:04:57.850Z,67.42
2019-05-13T07:07:23.630Z,66.83
2019-05-13T07:09:51.663Z,66.22
2019-05-13T07:12:17.270Z,66.25
2019-05-13T07:14:43.117Z,66.25
2019-05-13T07:17:08.918Z,65.43
2019-05-13T07:19:34.715Z,65.17
2019-05-13T07:22:02.810Z,64.77
2019-05-13T07:24:28.206Z,65.42
2019-05-13T07:26:54.097Z,64.66
2019-05-13T07:29:20.481Z,64.66
2019-05-13T07:31:47.152Z,63.29
2019-05-13T07:34:12.951Z,61.71
2019-05-13T07:36:39.193Z,57.37
2019-05-13T07:39:06.978Z,54.49
2019-05-13T07:41:39.050Z,52.60
2019-05-13T07:44:02.535Z,51.83
2019-05-13T07:46:28.181Z,52.99
2019-05-13T07:48:53.973Z,52.79
2019-05-13T07:51:22.007Z,53.72
2019-05-13T07:53:47.461Z,55.22
2019-05-13T07:56:13.260Z,54.01
2019-05-13T07:58:41.653Z,53.94
2019-05-13T08:01:06.772Z,53.01
2019-05-13T08:03:32.562Z,51.03
2019-05-13T08:05:58.669Z,49.64
2019-05-13T08:08:24.470Z,50.71
2019-05-13T08:10:51.958Z,50.05
2019-05-13T08:13:17.858Z,49.06
2019-05-13T08:15:43.644Z,46.57
2019-05-13T08:18:11.492Z,47.80
2019-05-13T08:20:37.221Z,47.35
2019-05-13T08:23:03.016Z,45.29
2019-05-13T08:25:28.907Z,44.49
2019-05-13T08:27:54.704Z,43.85
2019-05-13T08:30:22.746Z,44.76
2019-05-13T08:32:48.205Z,43.04
2019-05-13T08:35:13.972Z,42.15
2019-05-13T08:37:41.369Z,40.68
2019-05-13T08:40:07.559Z,40.95
2019-05-13T08:42:33.358Z,41.16
2019-05-13T08:45:01.923Z,41.22
2019-05-13T08:47:26.934Z,40.01
2019-05-13T08:49:52.723Z,39.74
2019-05-13T08:52:18.519Z,39.50
2019-05-13T08:54:44.309Z,39.78
2019-05-13T08:57:11.843Z,38.24
2019-05-13T08:59:37.795Z,38.49
2019-05-13T09:02:03.679Z,38.15
2019-05-13T09:04:31.558Z,38.82
2019-05-13T09:06:57.300Z,36.94
2019-05-13T09:09:23.086Z,36.57
2019-05-13T09:11:51.413Z,36.65
2019-05-13T09:14:16.574Z,36.94
2019-05-13T09:16:42.652Z,37.74
2019-05-13T09:19:08.454Z,36.54
2019-05-13T09:21:34.246Z,36.12
2019-05-13T09:24:02.127Z,36.07
2019-05-13T09:26:27.720Z,36.70
2019-05-13T09:28:53.520Z,35.38
2019-05-13T09:31:22.120Z,33.91
2019-05-13T09:33:47.800Z,34.16
2019-05-13T09:36:13.845Z,32.41
2019-05-13T09:38:41.884Z,31.81
2019-05-13T09:41:07.523Z,30.69
2019-05-13T09:43:33.359Z,30.66
2019-05-13T09:46:01.712Z,28.58
2019-05-13T09:48:27.732Z,30.03
2019-05-13T09:50:53.529Z,29.90
2019-05-13T09:53:21.946Z,28.89
2019-05-13T09:55:47.068Z,29.57
2019-05-13T09:58:12.856Z,30.75
2019-05-13T10:00:38.652Z,31.26
2019-05-13T10:03:04.450Z,30.00
2019-05-13T10:05:31.661Z,31.26
2019-05-13T10:07:57.552Z,30.12
2019-05-13T10:10:23.347Z,30.02
2019-05-13T10:13:07.278Z,31.95
2019-05-13T10:15:16.926Z,32.19
2019-05-13T10:17:43.332Z,32.32
2019-05-13T10:20:12.084Z,31.21
2019-05-13T10:22:38.540Z,32.28
2019-05-13T10:25:05.550Z,31.55
2019-05-13T10:27:32.419Z,31.57
2019-05-13T10:29:58.529Z,31.57
2019-05-13T10:32:24.324Z,31.16
2019-05-13T10:34:51.996Z,31.29
2019-05-13T10:37:18.031Z,30.38
2019-05-13T10:39:43.811Z,31.86
2019-05-13T10:42:12.038Z,33.04
2019-05-13T10:44:37.296Z,31.93
2019-05-13T10:47:03.194Z,30.67
2019-05-13T10:49:29.203Z,32.58
2019-05-13T10:51:55.000Z,31.42
2019-05-13T10:54:21.769Z,31.52
2019-05-13T10:56:47.692Z,31.84
2019-05-13T10:59:13.487Z,31.29
2019-05-13T11:01:41.807Z,32.05
2019-05-13T11:04:06.980Z,32.98
2019-05-13T11:06:32.791Z,33.56
2019-05-13T11:08:58.878Z,32.79
2019-05-13T11:11:24.689Z,34.88
2019-05-13T11:13:58.723Z,33.98
2019-05-13T11:16:18.848Z,31.08
2019-05-13T11:18:44.645Z,30.23
2019-05-13T11:21:13.063Z,29.28
2019-05-13T11:23:38.122Z,30.32
2019-05-13T11:26:03.923Z,31.39
2019-05-13T11:28:31.701Z,30.16
2019-05-13T11:30:59.775Z,30.67
2019-05-13T11:33:25.118Z,28.57
2019-05-13T11:35:52.323Z,29.95
2019-05-13T11:38:18.321Z,31.07
2019-05-13T11:40:44.118Z,31.15
2019-05-13T11:43:12.262Z,30.64
2019-05-13T11:45:37.613Z,31.03
2019-05-13T11:48:03.503Z,31.28
2019-05-13T11:50:29.594Z,30.90
2019-05-13T11:52:55.391Z,31.41
2019-05-13T11:55:23.047Z,30.49
2019-05-13T11:57:48.865Z,28.67
2019-05-13T12:00:21.059Z,29.89
2019-05-13T12:02:53.890Z,29.74
2019-05-13T12:05:14.663Z,31.23
2019-05-13T12:07:42.068Z,28.48
2019-05-13T12:10:08.345Z,28.15
2019-05-13T12:12:34.694Z,28.09
2019-05-13T12:15:27.138Z,29.19
2019-05-13T12:17:29.419Z,29.81
2019-05-13T12:19:55.217Z,29.53
2019-05-13T12:22:22.905Z,29.34
2019-05-13T12:24:48.696Z,30.01
2019-05-13T12:27:14.504Z,30.52
2019-05-13T12:29:43.099Z,30.72
2019-05-13T12:32:07.974Z,30.01
2019-05-13T12:34:40.524Z,29.26
2019-05-13T12:37:03.250Z,29.75
2019-05-13T12:39:31.461Z,28.72
2019-05-13T12:41:56.873Z,27.77
2019-05-13T12:44:23.059Z,27.79
2019-05-13T12:46:50.551Z,30.28
2019-05-13T12:49:16.874Z,29.91
2019-05-13T12:51:43.955Z,30.53
2019-05-13T12:54:13.667Z,30.96
2019-05-13T12:56:37.675Z,29.41
2019-05-13T12:59:03.473Z,28.90
2019-05-13T13:01:29.258Z,29.83
2019-05-13T13:03:55.070Z,29.10
2019-05-13T13:06:30.466Z,28.98
2019-05-13T13:08:50.585Z,27.37
2019-05-13T13:11:16.611Z,28.76
2019-05-13T13:13:58.232Z,29.21
2019-05-13T13:16:12.616Z,28.70
2019-05-13T13:18:37.834Z,28.89
2019-05-13T13:21:07.446Z,29.97
2019-05-13T13:23:34.120Z,32.19
2019-05-13T13:26:03.057Z,31.94
2019-05-13T13:28:27.275Z,32.43
2019-05-13T13:30:53.467Z,32.40
2019-05-13T13:33:19.256Z,32.21
2019-05-13T13:35:54.830Z,33.32
2019-05-13T13:38:12.779Z,33.90
2019-05-13T13:40:38.633Z,34.67
2019-05-13T13:43:05.526Z,32.72
2019-05-13T13:45:36.767Z,33.52
2019-05-13T13:48:03.914Z,33.16
2019-05-13T13:50:26.889Z,34.12
2019-05-13T13:52:52.978Z,34.61
2019-05-13T13:55:18.877Z,34.70
2019-05-13T13:57:45.274Z,33.31
2019-05-13T14:00:30.842Z,33.02
2019-05-13T14:02:39.154Z,33.41
2019-05-13T14:05:05.880Z,34.90
2019-05-13T14:07:37.838Z,35.49
2019-05-13T14:10:04.204Z,34.68
2019-05-13T14:12:27.294Z,35.27
2019-05-13T14:14:53.077Z,36.26
2019-05-13T14:17:18.876Z,36.84
2019-05-13T14:19:44.664Z,36.60
2019-05-13T14:22:12.610Z,37.38
2019-05-13T14:24:38.155Z,37.96
2019-05-13T14:27:04.171Z,37.50
2019-05-13T14:29:38.569Z,36.26
2019-05-13T14:31:57.643Z,36.39
2019-05-13T14:34:23.434Z,35.60
2019-05-13T14:36:51.631Z,36.08
2019-05-13T14:39:17.326Z,36.41
2019-05-13T14:41:43.132Z,36.13
2019-05-13T14:44:09.009Z,36.06
2019-05-13T14:46:46.795Z,37.06
2019-05-13T14:49:02.696Z,37.13
2019-05-13T14:51:28.492Z,37.41
2019-05-13T14:53:54.288Z,38.96
2019-05-13T14:56:22.145Z,38.83
2019-05-13T14:58:47.780Z,39.90
2019-05-13T15:01:19.050Z,39.79
2019-05-13T15:03:41.678Z,40.17
2019-05-13T15:06:07.570Z,40.54
2019-05-13T15:08:33.367Z,40.86
2019-05-13T15:11:01.706Z,41.18
2019-05-13T15:13:26.859Z,41.97
2019-05-13T15:15:52.640Z,41.13
2019-05-13T15:18:18.477Z,41.16
2019-05-13T15:20:44.252Z,41.24
2019-05-13T15:23:11.941Z,41.47
2019-05-13T15:25:37.922Z,41.30
2019-05-13T15:28:03.734Z,40.54
2019-05-13T15:30:31.578Z,41.01
2019-05-13T15:32:57.221Z,40.92
2019-05-13T15:35:23.005Z,41.89
2019-05-13T15:37:48.811Z,42.17
2019-05-13T15:40:14.598Z,43.17
2019-05-13T15:42:40.391Z,43.40
2019-05-13T15:45:06.390Z,43.42
2019-05-13T15:47:32.190Z,44.05
2019-05-13T15:49:58.286Z,44.96
2019-05-13T15:52:24.119Z,45.06
2019-05-13T15:54:52.013Z,45.30
2019-05-13T15:57:17.621Z,46.23
2019-05-13T15:59:43.403Z,45.89
2019-05-13T16:02:11.798Z,45.84
2019-05-13T16:04:49.035Z,45.74
2019-05-13T16:07:04.973Z,46.08
2019-05-13T16:09:31.407Z,45.97
2019-05-13T16:11:57.356Z,46.31
2019-05-13T16:14:23.159Z,46.59
2019-05-13T16:16:48.955Z,47.14
2019-05-13T16:19:14.762Z,47.19
2019-05-13T16:21:41.645Z,47.06
2019-05-13T16:24:07.856Z,46.66
2019-05-13T16:26:33.748Z,46.62
2019-05-13T16:29:02.169Z,46.39
2019-05-13T16:31:27.338Z,46.97
2019-05-13T16:33:53.151Z,47.42
2019-05-13T16:36:21.961Z,48.45
2019-05-13T16:38:46.632Z,50.70
2019-05-13T16:41:12.796Z,51.57
2019-05-13T16:43:38.624Z,51.70
2019-05-13T16:46:07.141Z,51.75
2019-05-13T16:48:32.503Z,51.08
2019-05-13T16:50:58.298Z,52.42
2019-05-13T16:53:25.960Z,52.97
2019-05-13T16:55:51.795Z,53.18
2019-05-13T16:58:17.628Z,52.87
2019-05-13T17:00:44.517Z,52.87
2019-05-13T17:03:11.470Z,52.37
2019-05-13T17:05:37.631Z,51.92
2019-05-13T17:08:03.419Z,52.41
2019-05-13T17:10:31.397Z,52.46
2019-05-13T17:12:56.923Z,53.26
2019-05-13T17:15:22.823Z,53.70
2019-05-13T17:17:48.605Z,53.72
2019-05-13T17:20:14.914Z,53.97
2019-05-13T17:22:42.400Z,53.95
2019-05-13T17:25:08.313Z,53.68
2019-05-13T17:27:34.104Z,54.04
2019-05-13T17:30:02.134Z,54.33
2019-05-13T17:32:27.598Z,54.76
2019-05-13T17:34:53.399Z,54.59
2019-05-13T17:37:19.197Z,52.89
2019-05-13T17:39:44.982Z,52.50
2019-05-13T17:42:12.157Z,52.22
2019-05-13T17:44:38.214Z,51.62
2019-05-13T17:47:03.989Z,51.88
2019-05-13T17:49:31.792Z,51.67
2019-05-13T17:51:57.478Z,51.89
2019-05-13T17:54:23.284Z,51.27
2019-05-13T17:56:49.080Z,51.27
2019-05-13T17:59:16.288Z,51.79
2019-05-13T18:01:42.158Z,52.20
2019-05-13T18:04:08.142Z,52.40
2019-05-13T18:06:33.959Z,52.59
2019-05-13T18:09:01.177Z,52.99
2019-05-13T18:11:27.141Z,52.97
2019-05-13T18:13:52.929Z,52.77
2019-05-13T18:16:18.730Z,53.31
2019-05-13T18:18:47.623Z,53.07
2019-05-13T18:21:12.220Z,53.71
2019-05-13T18:23:38.028Z,53.79
2019-05-13T18:26:03.813Z,53.97
2019-05-13T18:28:31.428Z,54.17
2019-05-13T18:30:57.311Z,54.54
2019-05-13T18:33:23.104Z,54.36
2019-05-13T18:35:48.893Z,54.51
2019-05-13T18:38:14.698Z,54.70
2019-05-13T18:40:42.011Z,55.09
2019-05-13T18:43:07.892Z,55.22
2019-05-13T18:45:33.674Z,55.36
2019-05-13T18:48:01.590Z,55.61
2019-05-13T18:50:27.768Z,55.60
2019-05-13T18:52:53.571Z,55.91
2019-05-13T18:55:19.358Z,55.38
2019-05-13T18:57:45.469Z,55.47
2019-05-13T19:00:11.547Z,55.09
2019-05-13T19:02:37.364Z,55.23
2019-05-13T19:05:04.777Z,55.64
2019-05-13T19:07:31.554Z,55.97
2019-05-13T19:09:57.580Z,56.43
2019-05-13T19:12:25.692Z,56.94
2019-05-13T19:14:51.635Z,57.51
2019-05-13T19:17:17.559Z,58.22
2019-05-13T19:19:43.753Z,58.89
2019-05-13T19:22:09.552Z,59.04
2019-05-13T19:24:35.367Z,59.41
2019-05-13T19:27:01.826Z,59.79
2019-05-13T19:29:27.758Z,60.10
2019-05-13T19:31:53.537Z,60.57
2019-05-13T19:34:21.418Z,60.96
2019-05-13T19:36:47.062Z,61.80
2019-05-13T19:39:12.861Z,61.80
2019-05-13T19:41:38.643Z,61.76
2019-05-13T19:44:04.435Z,62.27
2019-05-13T19:46:31.411Z,62.64
2019-05-13T19:48:57.330Z,62.87
2019-05-13T19:51:23.127Z,63.07
2019-05-13T19:53:48.910Z,63.53
2019-05-13T19:56:14.708Z,63.77
2019-05-13T19:58:40.491Z,63.95
2019-05-13T20:01:06.285Z,63.94
2019-05-13T20:03:32.090Z,64.54
2019-05-13T20:05:57.890Z,64.86
2019-05-13T20:08:23.676Z,64.91
2019-05-13T20:10:51.368Z,64.98
2019-05-13T20:13:17.173Z,65.23
2019-05-13T20:15:42.970Z,65.28
2019-05-13T20:18:08.764Z,65.37
2019-05-13T20:20:34.559Z,65.61
2019-05-13T20:23:01.370Z,65.97
2019-05-13T20:25:27.367Z,66.76
2019-05-13T20:27:53.146Z,66.76
2019-05-13T20:30:19.034Z,66.66
2019-05-13T20:32:44.839Z,66.82
2019-05-13T20:35:11.448Z,67.21
2019-05-13T20:37:37.431Z,67.28
2019-05-13T20:40:03.817Z,67.49
2019-05-13T20:42:29.965Z,67.60
2019-05-13T20:44:55.754Z,68.17
2019-05-13T20:47:21.559Z,68.27
2019-05-13T20:49:58.175Z,68.40
2019-05-13T20:52:16.804Z,68.62
2019-05-13T20:54:43.094Z,68.83
2019-05-13T20:57:09.667Z,69.06
2019-05-13T20:59:36.469Z,69.19
2019-05-13T21:02:03.799Z,69.42
2019-05-13T21:04:32.031Z,70.16
2019-05-13T21:06:58.334Z,70.16
2019-05-13T21:09:24.450Z,70.07
2019-05-13T21:11:51.495Z,70.13
2019-05-13T21:14:17.545Z,70.41
2019-05-13T21:16:44.346Z,70.63
2019-05-13T21:19:12.370Z,70.74
2019-05-13T21:21:38.378Z,70.84
2019-05-13T21:24:04.178Z,70.74
2019-05-13T21:26:31.503Z,70.96
2019-05-13T21:28:57.397Z,71.17
2019-05-13T21:31:23.304Z,71.53
2019-05-13T21:33:51.391Z,71.55
2019-05-13T21:36:17.137Z,71.73
2019-05-13T21:38:43.157Z,71.77
2019-05-13T21:41:11.632Z,71.80
2019-05-13T21:43:37.586Z,72.09
2019-05-13T21:46:03.403Z,72.37
2019-05-13T21:48:29.193Z,72.23
2019-05-13T21:50:54.981Z,72.42
2019-05-13T21:53:24.192Z,72.54
2019-05-13T21:55:48.735Z,72.85
2019-05-13T21:58:14.513Z,72.51
2019-05-13T22:00:44.741Z,72.88
2019-05-13T22:03:11.606Z,72.77
2019-05-13T22:05:37.458Z,72.99
2019-05-13T22:08:03.254Z,73.32
2019-05-13T22:10:30.979Z,73.81
2019-05-13T22:12:56.740Z,73.91
2019-05-13T22:15:22.539Z,73.95
2019-05-13T22:17:48.320Z,74.15
2019-05-13T22:20:14.118Z,73.74
2019-05-13T22:22:41.563Z,73.47
2019-05-13T22:25:07.582Z,73.03
2019-05-13T22:27:33.372Z,73.38
2019-05-13T22:30:01.169Z,73.35
2019-05-13T22:32:26.852Z,73.08
2019-05-13T22:34:52.650Z,73.00
2019-05-13T22:37:18.437Z,73.22
2019-05-13T22:39:44.242Z,73.58
2019-05-13T22:42:12.234Z,73.23
2019-05-13T22:44:37.721Z,73.79
2019-05-13T22:47:03.504Z,73.96
2019-05-13T22:49:31.202Z,73.33
2019-05-13T22:51:57.001Z,73.38
2019-05-13T22:54:22.798Z,73.12
2019-05-13T22:56:48.585Z,73.05
2019-05-13T22:59:14.379Z,73.35
2019-05-13T23:01:41.818Z,73.03
2019-05-13T23:04:07.851Z,73.34
2019-05-13T23:06:33.669Z,73.35
2019-05-13T23:09:01.590Z,73.56
2019-05-13T23:11:27.154Z,73.51
2019-05-13T23:14:06.439Z,74.02
2019-05-13T23:16:22.222Z,74.41
2019-05-13T23:18:48.126Z,74.56
2019-05-13T23:21:13.932Z,74.74
2019-05-13T23:23:39.715Z,74.78
2019-05-13T23:26:05.525Z,74.83
2019-05-13T23:28:32.321Z,74.78
2019-05-13T23:30:58.209Z,75.12
2019-05-13T23:33:24.001Z,75.20
2019-05-13T23:35:49.798Z,75.58
2019-05-13T23:38:15.580Z,75.90
2019-05-13T23:40:42.128Z,76.18
2019-05-13T23:43:08.051Z,76.00
2019-05-13T23:45:33.883Z,75.71
2019-05-13T23:48:01.653Z,75.73
2019-05-13T23:50:27.432Z,75.71
2019-05-13T23:52:53.273Z,75.93
2019-05-13T23:55:19.045Z,76.07
2019-05-13T23:57:44.850Z,76.50
